Archiv-/Tagesdaten

--Timestamp---	Temp	Chill	HIndex	Humid	Dewpt	Wind	HiWind	WindDir	Rain	Barom	        Solar	ET	UV
--------------	----	-----	------	-----	-----	----	------	-------	----	-----	        -----	--	--
20080514 00:05	12.2	12.2	12.2	61	4.9	0	0	112	0.00	1011.382	0	0.000	0
20080514 00:10	12.1	12.1	12.1	62	5.0	0	0	112	0.00	1011.382	0	0.000	0
20080514 00:15	11.9	11.9	11.9	63	5.1	0	0	112	0.00	1011.348	0	0.000	0
20080514 00:20	11.8	11.8	11.8	63	5.0	0	0	112	0.00	1011.551	0	0.000	0
20080514 00:25	11.7	11.7	11.7	63	4.9	0	0	112	0.00	1011.585	0	0.000	0
20080514 00:30	11.6	11.6	11.6	64	5.0	0	0	112	0.00	1011.619	0	0.000	0
20080514 00:35	11.5	11.5	11.5	66	5.4	0	0	112	0.00	1011.585	0	0.000	0
20080514 00:40	11.3	11.3	11.3	66	5.2	0	0	112	0.00	1011.585	0	0.000	0
20080514 00:45	11.3	11.3	11.3	66	5.2	0	0	112	0.00	1011.551	0	0.000	0
20080514 00:50	11.2	11.2	11.2	67	5.3	0	0	112	0.00	1011.585	0	0.000	0
20080514 00:55	11.1	11.1	11.1	66	4.9	3	11	45	0.00	1011.991	0	0.000	0
20080514 01:00	11.1	11.1	11.1	65	4.7	0	2	45	0.00	1011.788	0	0.020	0
20080514 01:05	11.1	11.1	11.1	64	4.6	0	3	45	0.00	1011.619	0	0.000	0
20080514 01:10	11.2	11.2	11.2	64	4.6	0	3	45	0.00	1011.585	0	0.000	0
20080514 01:15	11.2	11.2	11.2	65	4.8	0	0	45	0.00	1011.585	0	0.000	0
20080514 01:20	11.0	11.0	11.0	64	4.5	0	0	45	0.00	1011.585	0	0.000	0
20080514 01:25	10.9	10.9	10.9	66	4.8	0	0	45	0.00	1011.619	0	0.000	0
20080514 01:30	10.8	10.8	10.8	66	4.7	0	2	0	0.00	1011.754	0	0.000	0
20080514 01:35	10.6	10.6	10.6	66	4.5	0	2	0	0.00	1011.754	0	0.000	0
20080514 01:40	10.5	10.5	10.5	67	4.6	0	3	45	0.00	1011.720	0	0.000	0
20080514 01:45	10.4	10.4	10.4	66	4.3	0	3	45	0.00	1011.686	0	0.000	0
20080514 01:50	10.4	10.4	10.4	66	4.3	0	2	45	0.00	1011.720	0	0.000	0
20080514 01:55	10.4	10.4	10.4	66	4.3	0	0	45	0.00	1011.720	0	0.000	0
20080514 02:00	10.3	10.3	10.3	66	4.2	0	2	45	0.00	1011.856	0	0.020	0
20080514 02:05	10.2	10.2	10.2	67	4.3	0	5	45	0.00	1011.856	0	0.000	0
20080514 02:10	10.1	10.1	10.1	67	4.2	0	0	45	0.00	1011.788	0	0.000	0
20080514 02:15	10.1	10.1	10.1	68	4.4	0	0	45	0.00	1011.788	0	0.000	0
20080514 02:20	10.1	10.1	10.1	67	4.2	0	2	45	0.00	1011.822	0	0.000	0
20080514 02:25	10.1	10.1	10.1	67	4.2	0	0	45	0.00	1011.822	0	0.000	0
20080514 02:30	10.1	10.1	10.1	67	4.3	0	2	45	0.00	1011.856	0	0.000	0
20080514 02:35	10.4	10.4	10.4	66	4.3	0	2	90	0.00	1011.720	0	0.000	0
20080514 02:40	10.4	10.4	10.4	66	4.3	0	0	90	0.00	1011.720	0	0.000	0
20080514 02:45	10.3	10.3	10.3	67	4.4	0	2	90	0.00	1011.788	0	0.000	0
20080514 02:50	10.2	10.2	10.2	67	4.3	0	0	90	0.00	1011.957	0	0.000	0
20080514 02:55	10.0	10.0	10.0	69	4.6	0	0	90	0.00	1011.890	0	0.000	0
20080514 03:00	9.9	9.9	9.9	69	4.5	0	0	90	0.00	1011.924	0	0.020	0
20080514 03:05	9.8	9.8	9.8	69	4.4	0	2	90	0.00	1011.991	0	0.000	0
20080514 03:10	9.6	9.6	9.6	69	4.2	0	2	90	0.00	1011.991	0	0.000	0
20080514 03:15	9.4	9.4	9.4	70	4.2	0	0	90	0.00	1012.059	0	0.000	0
20080514 03:20	9.2	9.2	9.2	71	4.2	0	0	90	0.00	1012.059	0	0.000	0
20080514 03:25	9.1	9.1	9.1	72	4.3	0	2	90	0.00	1012.194	0	0.000	0
20080514 03:30	9.0	9.0	9.0	73	4.4	0	2	90	0.00	1012.228	0	0.000	0
20080514 03:35	9.0	9.0	9.0	73	4.4	0	2	90	0.00	1012.228	0	0.000	0
20080514 03:40	9.1	9.1	9.1	73	4.5	0	2	90	0.00	1012.194	0	0.000	0
20080514 03:45	9.1	9.1	9.1	74	4.7	0	2	90	0.00	1012.194	0	0.000	0
20080514 03:50	9.1	9.1	9.1	74	4.7	0	3	90	0.00	1012.228	0	0.000	0
20080514 03:55	9.0	9.0	9.0	74	4.6	0	3	90	0.00	1012.296	0	0.000	0
20080514 04:00	8.9	8.9	8.9	74	4.6	0	3	90	0.00	1012.228	0	0.020	0
20080514 04:05	8.8	8.8	8.8	75	4.6	0	2	90	0.00	1012.228	0	0.000	0
20080514 04:10	8.8	8.8	8.8	75	4.6	0	2	90	0.00	1012.228	0	0.000	0
20080514 04:15	8.7	8.7	8.7	75	4.5	0	0	90	0.00	1012.194	0	0.000	0
20080514 04:20	8.6	8.6	8.6	76	4.6	0	0	90	0.00	1012.194	0	0.000	0
20080514 04:25	8.6	8.6	8.6	75	4.4	0	0	90	0.00	1012.330	0	0.000	0
20080514 04:30	8.4	8.4	8.4	76	4.5	0	0	90	0.00	1012.296	0	0.000	0
20080514 04:35	8.3	8.3	8.3	76	4.4	0	0	90	0.00	1012.228	0	0.000	0
20080514 04:40	8.2	8.2	8.2	77	4.4	0	2	90	0.00	1012.228	0	0.000	0
20080514 04:45	8.3	8.3	8.3	77	4.5	0	2	90	0.00	1012.194	0	0.000	0
20080514 04:50	8.2	8.2	8.2	77	4.4	0	0	90	0.00	1012.194	0	0.000	0
20080514 04:55	8.2	8.2	8.2	78	4.6	0	0	90	0.00	1012.194	0	0.000	0
20080514 05:00	8.2	8.2	8.2	78	4.6	0	3	90	0.00	1012.194	0	0.020	0
20080514 05:05	8.1	8.1	8.1	78	4.5	0	3	90	0.00	1012.161	0	0.000	0
20080514 05:10	8.1	8.1	8.1	78	4.5	0	2	90	0.00	1012.161	0	0.000	0
20080514 05:15	8.1	8.1	8.1	78	4.5	0	3	112	0.00	1012.127	0	0.000	0
20080514 05:20	8.1	8.1	8.1	78	4.5	0	3	112	0.00	1012.127	0	0.000	0
20080514 05:25	8.1	8.1	8.1	78	4.5	0	3	112	0.00	1012.127	0	0.000	0
20080514 05:30	8.0	8.0	8.0	78	4.4	0	2	112	0.00	1012.161	0	0.000	0
20080514 05:35	8.0	8.0	8.0	78	4.4	0	3	112	0.00	1012.161	0	0.000	0
20080514 05:40	8.0	8.0	8.0	78	4.4	0	2	112	0.00	1012.161	3	0.000	0
20080514 05:45	8.0	8.0	8.0	78	4.4	0	2	112	0.00	1012.228	6	0.000	0
20080514 05:50	7.9	7.9	7.9	78	4.3	0	3	112	0.00	1012.194	10	0.000	0
20080514 05:55	7.9	7.9	7.9	78	4.3	0	2	112	0.00	1012.228	12	0.000	0
20080514 06:00	7.9	7.9	7.9	78	4.3	0	6	112	0.00	1012.262	15	0.000	0
20080514 06:05	7.8	7.8	7.8	78	4.2	0	3	157	0.00	1012.431	17	0.000	0
20080514 06:10	7.8	7.8	7.8	78	4.2	0	2	157	0.00	1012.431	19	0.000	0
20080514 06:15	7.9	7.9	7.9	78	4.3	0	2	157	0.00	1012.465	22	0.000	0
20080514 06:20	7.9	7.9	7.9	78	4.3	0	2	157	0.00	1012.533	24	0.000	0
20080514 06:25	7.9	7.9	7.9	78	4.3	0	0	157	0.00	1012.499	26	0.000	0
20080514 06:30	8.1	8.1	8.1	78	4.5	0	3	157	0.00	1012.465	29	0.000	0
20080514 06:35	8.2	8.2	8.2	77	4.4	0	2	157	0.00	1012.398	31	0.000	0
20080514 06:40	8.3	8.3	8.3	77	4.5	0	3	157	0.00	1012.431	32	0.000	0
20080514 06:45	8.5	8.5	8.5	77	4.7	0	2	157	0.00	1012.398	34	0.000	0
20080514 06:50	8.6	8.6	8.6	76	4.6	2	5	157	0.00	1012.330	36	0.000	0
20080514 06:55	8.7	8.7	8.7	76	4.7	0	3	157	0.00	1012.431	38	0.000	0
20080514 07:00	8.8	8.8	8.8	76	4.8	0	3	157	0.00	1012.499	87	0.020	0
20080514 07:05	8.9	8.9	8.9	75	4.7	2	8	157	0.00	1012.601	148	0.000	0
20080514 07:10	9.0	9.0	9.0	75	4.8	5	8	157	0.00	1012.601	164	0.000	0
20080514 07:15	9.2	9.2	9.2	75	5.0	2	6	157	0.00	1012.635	178	0.000	0
20080514 07:20	9.5	9.5	9.5	74	5.1	0	5	157	0.00	1012.635	192	0.000	0
20080514 07:25	9.9	9.9	9.9	74	5.5	0	2	157	0.00	1012.499	207	0.000	0
20080514 07:30	10.4	10.4	10.4	73	5.8	0	2	157	0.00	1012.567	223	0.000	0
20080514 07:35	10.9	10.9	10.9	71	5.9	0	2	157	0.00	1012.465	235	0.000	0
20080514 07:40	11.3	11.3	11.3	69	5.8	0	2	157	0.00	1012.465	249	0.000	0
20080514 07:45	11.6	11.6	11.6	69	6.1	0	2	157	0.00	1012.499	262	0.000	1
20080514 07:50	11.9	11.9	11.9	67	6.0	0	0	157	0.00	1012.499	276	0.000	1
20080514 07:55	12.3	12.3	12.3	67	6.3	0	5	157	0.00	1012.364	289	0.000	1
20080514 08:00	12.7	12.7	12.7	67	6.7	0	0	157	0.00	1012.364	303	0.080	1
20080514 08:05	13.3	13.3	13.3	63	6.4	0	2	157	0.00	1012.567	317	0.000	1
20080514 08:10	13.8	13.8	13.8	61	6.4	0	0	157	0.00	1012.499	330	0.000	1
20080514 08:15	14.3	14.3	14.3	59	6.4	0	3	157	0.00	1012.499	346	0.000	1
20080514 08:20	14.3	14.3	14.3	60	6.7	0	3	157	0.00	1012.567	360	0.000	1
20080514 08:25	14.4	14.4	14.4	61	7.0	0	2	157	0.00	1012.567	372	0.000	1
20080514 08:30	14.6	14.6	14.6	59	6.7	0	3	157	0.00	1012.635	385	0.000	1
20080514 08:35	14.8	14.8	14.8	59	6.9	0	2	157	0.00	1012.499	398	0.000	1
20080514 08:40	14.9	14.9	14.9	59	6.9	0	2	157	0.00	1012.533	412	0.000	1
20080514 08:45	15.3	15.3	15.3	58	7.1	0	2	157	0.00	1012.567	424	0.000	1
20080514 08:50	15.7	15.7	15.7	54	6.4	0	2	157	0.00	1012.567	438	0.000	2
20080514 08:55	15.6	15.6	15.6	55	6.5	0	2	157	0.00	1012.567	453	0.000	2
20080514 09:00	15.6	15.6	15.6	55	6.6	0	2	157	0.00	1012.601	465	0.160	2
20080514 09:05	15.9	15.9	15.9	56	7.2	0	3	157	0.00	1012.669	479	0.000	2
20080514 09:10	16.4	16.4	16.4	56	7.6	0	2	157	0.00	1012.702	491	0.000	2
20080514 09:15	16.6	16.6	16.6	55	7.5	0	2	157	0.00	1012.635	503	0.000	2
20080514 09:20	16.5	16.5	16.5	55	7.4	2	5	157	0.00	1012.601	516	0.000	2
20080514 09:25	16.6	16.6	16.6	55	7.5	0	3	157	0.00	1012.601	528	0.000	2
20080514 09:30	16.6	16.6	16.6	55	7.5	0	3	157	0.00	1012.567	541	0.000	2
20080514 09:35	16.7	16.7	16.7	55	7.6	2	5	157	0.00	1012.601	551	0.000	2
20080514 09:40	16.9	16.9	16.9	56	8.1	0	3	45	0.00	1012.601	562	0.000	2
20080514 09:45	16.9	16.9	16.9	55	7.8	2	5	45	0.00	1012.601	574	0.000	3
20080514 09:50	17.1	17.1	17.1	54	7.7	2	5	315	0.00	1012.567	587	0.000	3
20080514 09:55	17.1	17.1	17.1	53	7.4	0	3	315	0.00	1012.533	593	0.000	3
20080514 10:00	17.1	17.1	17.1	53	7.4	2	5	292	0.00	1012.533	608	0.240	3
20080514 10:05	17.1	17.1	17.1	53	7.4	2	6	22	0.00	1012.804	620	0.000	3
20080514 10:10	17.2	17.2	17.2	54	7.8	2	5	22	0.00	1012.804	631	0.000	3
20080514 10:15	17.3	17.3	17.3	53	7.7	3	8	292	0.00	1012.770	644	0.000	3
20080514 10:20	17.4	17.4	17.4	54	8.0	2	6	292	0.00	1012.770	653	0.000	4
20080514 10:25	17.8	17.8	17.8	53	8.1	0	3	292	0.00	1012.804	663	0.000	4
20080514 10:30	17.9	17.9	17.9	52	7.9	0	3	315	0.00	1012.804	675	0.000	4
20080514 10:35	18.1	18.1	18.1	51	7.8	0	3	315	0.00	1012.702	685	0.000	4
20080514 10:40	18.4	18.4	18.4	51	8.1	0	2	315	0.00	1012.702	695	0.000	4
20080514 10:45	18.8	18.8	18.8	49	7.9	0	3	0	0.00	1012.736	705	0.000	4
20080514 10:50	18.9	18.9	18.9	49	8.0	2	5	292	0.00	1012.736	713	0.000	4
20080514 10:55	19.0	19.0	19.0	49	8.0	2	6	292	0.00	1012.804	723	0.000	4
20080514 11:00	19.1	19.1	19.1	50	8.4	2	5	0	0.00	1012.736	730	0.300	4
20080514 11:05	19.2	19.2	19.2	50	8.5	2	8	0	0.00	1012.736	737	0.000	5
20080514 11:10	19.4	19.4	19.4	49	8.4	2	5	315	0.00	1012.702	746	0.000	5
20080514 11:15	19.6	19.6	19.6	49	8.6	2	8	0	0.00	1012.669	757	0.000	5
20080514 11:20	19.7	19.7	19.7	48	8.3	2	8	315	0.00	1012.635	761	0.000	5
20080514 11:25	19.8	19.8	19.8	47	8.2	2	5	292	0.00	1012.567	765	0.000	5
20080514 11:30	19.8	19.8	19.8	46	7.9	3	8	22	0.00	1012.533	769	0.000	5
20080514 11:35	19.9	19.9	19.9	46	8.0	3	8	22	0.00	1012.533	762	0.000	5
20080514 11:40	20.0	20.0	20.0	46	8.0	3	11	22	0.00	1012.567	786	0.000	5
20080514 11:45	20.2	20.2	20.2	48	8.9	2	6	45	0.00	1012.499	786	0.000	5
20080514 11:50	20.3	20.3	20.3	44	7.6	3	10	22	0.00	1012.431	796	0.000	6
20080514 11:55	20.3	20.3	20.3	45	8.0	3	10	22	0.00	1012.398	800	0.000	6
20080514 12:00	20.3	20.3	20.3	44	7.6	5	10	45	0.00	1012.398	802	0.360	6
20080514 12:05	20.4	20.4	20.4	45	8.1	5	10	22	0.00	1012.499	811	0.000	6
20080514 12:10	20.6	20.6	20.6	43	7.5	3	8	22	0.00	1012.499	816	0.000	6
20080514 12:15	20.8	20.8	20.8	46	8.7	2	8	337	0.00	1012.431	816	0.000	6
20080514 12:20	21.2	21.2	21.2	41	7.4	3	11	45	0.00	1012.296	823	0.000	6
20080514 12:25	21.1	21.1	21.1	40	6.9	5	11	22	0.00	1012.330	834	0.000	6
20080514 12:30	20.9	20.9	20.9	39	6.5	5	10	22	0.00	1012.296	838	0.000	6
20080514 12:35	21.2	21.2	21.2	43	8.1	2	8	45	0.00	1012.228	838	0.000	6
20080514 12:40	21.4	21.4	21.4	37	6.1	5	10	22	0.00	1012.194	837	0.000	6
20080514 12:45	21.6	21.6	21.6	34	5.0	5	10	67	0.00	1012.194	846	0.000	6
20080514 12:50	21.6	21.6	21.6	35	5.4	3	11	0	0.00	1012.161	847	0.000	6
20080514 12:55	21.8	21.8	21.8	35	5.7	3	8	22	0.00	1012.093	846	0.000	6
20080514 13:00	21.9	21.9	21.9	33	4.9	3	14	22	0.00	1012.093	848	0.000	6
20080514 13:05	21.9	21.9	21.9	34	5.4	3	11	45	0.00	1012.059	848	0.420	6
20080514 13:10	21.8	21.8	21.8	35	5.7	3	6	292	0.00	1012.059	848	0.000	6
20080514 13:15	22.0	22.0	22.0	35	5.8	2	5	315	0.00	1011.991	851	0.000	6
20080514 13:20	22.2	22.2	22.2	35	6.0	2	10	22	0.00	1011.991	847	0.000	6
20080514 13:25	22.2	22.2	22.2	32	4.7	3	8	22	0.00	1011.991	849	0.000	6
20080514 13:30	21.9	21.9	21.9	34	5.4	3	6	22	0.00	1011.924	847	0.000	6
20080514 13:35	22.1	22.1	22.1	35	5.9	2	5	0	0.00	1011.924	848	0.000	6
20080514 13:40	22.4	22.4	22.4	32	4.9	2	8	337	0.00	1011.788	850	0.000	6
20080514 13:45	22.5	22.5	22.5	32	5.0	3	11	22	0.00	1011.788	849	0.000	6
20080514 13:50	22.7	22.7	22.7	34	6.0	2	5	22	0.00	1011.619	847	0.000	6
20080514 13:55	23.0	23.0	23.0	33	5.9	2	5	22	0.00	1011.585	843	0.000	6
20080514 14:00	23.0	23.0	23.0	31	5.0	2	8	22	0.00	1011.551	836	0.420	6
20080514 14:05	22.9	22.9	22.9	29	4.0	3	10	292	0.00	1011.585	835	0.000	6
20080514 14:10	22.8	22.8	22.8	28	3.4	3	8	22	0.00	1011.483	832	0.000	6
20080514 14:15	22.9	22.9	22.9	29	3.9	3	8	0	0.00	1011.517	825	0.000	6
20080514 14:20	23.0	23.0	23.0	27	3.0	3	10	45	0.00	1011.449	822	0.000	6
20080514 14:25	22.9	22.9	22.9	25	1.8	3	10	45	0.00	1011.449	816	0.000	6
20080514 14:30	22.8	22.8	22.8	29	3.9	5	10	45	0.00	1011.348	816	0.000	6
20080514 14:35	22.9	22.9	22.9	28	3.5	3	8	22	0.00	1011.348	810	0.000	6
20080514 14:40	23.2	23.2	23.2	28	3.6	3	10	292	0.00	1011.111	803	0.000	6
20080514 14:45	23.4	23.4	23.4	27	3.4	2	8	337	0.00	1011.111	800	0.000	6
20080514 14:50	23.3	23.3	23.3	26	2.7	2	5	0	0.00	1011.009	791	0.000	5
20080514 14:55	23.4	23.4	23.4	28	3.9	2	6	90	0.00	1010.975	786	0.000	5
20080514 15:00	23.7	23.7	23.7	25	2.5	0	3	67	0.00	1010.941	777	0.420	5
20080514 15:05	23.7	23.7	23.7	28	4.1	2	6	45	0.00	1010.941	771	0.000	5
20080514 15:10	23.8	23.8	23.8	23	1.4	3	6	270	0.00	1010.941	767	0.000	5
20080514 15:15	23.8	23.8	23.8	24	2.0	2	6	0	0.00	1010.874	764	0.000	5
20080514 15:20	24.0	24.0	24.7	24	2.2	3	6	270	0.00	1010.840	746	0.000	5
20080514 15:25	24.1	24.1	24.8	25	2.8	3	10	0	0.00	1010.704	735	0.000	4
20080514 15:30	24.1	24.1	24.7	23	1.6	3	14	292	0.00	1010.704	725	0.000	4
20080514 15:35	23.9	23.9	24.6	22	0.9	2	8	292	0.00	1010.671	717	0.000	4
20080514 15:40	23.9	23.9	24.6	23	1.5	0	3	270	0.00	1010.603	705	0.000	4
20080514 15:45	24.2	24.2	25.0	28	4.5	2	5	270	0.00	1010.501	692	0.000	4
20080514 15:50	24.3	24.3	24.9	26	3.6	2	8	292	0.00	1010.332	682	0.000	4
20080514 15:55	24.4	24.4	25.0	27	4.2	2	6	292	0.00	1010.264	676	0.000	4
20080514 16:00	24.4	24.4	25.0	26	3.6	2	3	292	0.00	1010.264	666	0.380	4
20080514 16:05	24.3	24.3	24.9	26	3.6	3	10	292	0.00	1010.366	653	0.000	4
20080514 16:10	24.2	24.2	24.8	25	2.9	5	10	270	0.00	1010.298	642	0.000	3
20080514 16:15	24.2	24.2	24.9	27	4.0	2	8	270	0.00	1010.230	631	0.000	3
20080514 16:20	24.3	24.3	25.0	27	4.1	0	3	292	0.00	1010.298	623	0.000	3
20080514 16:25	24.3	24.3	24.9	26	3.5	2	5	292	0.00	1010.230	609	0.000	3
20080514 16:30	24.2	24.2	24.8	24	2.3	2	5	45	0.00	1010.196	600	0.000	3
20080514 16:35	23.7	23.7	23.7	27	3.6	5	10	45	0.00	1010.196	588	0.000	3
20080514 16:40	23.6	23.6	23.6	27	3.5	5	10	67	0.00	1010.298	573	0.000	3
20080514 16:45	23.8	23.8	23.8	29	4.7	0	5	315	0.00	1010.095	560	0.000	2
20080514 16:50	24.1	24.1	24.8	25	2.8	6	11	292	0.00	1010.230	549	0.000	2
20080514 16:55	24.2	24.2	24.9	27	4.0	6	14	292	0.00	1010.196	521	0.000	2
20080514 17:00	24.2	24.2	24.9	26	3.4	3	8	270	0.00	1010.163	521	0.320	2
20080514 17:05	24.2	24.2	25.0	29	5.0	2	6	270	0.00	1010.196	513	0.000	2
20080514 17:10	24.3	24.3	25.0	28	4.6	2	6	0	0.00	1010.129	501	0.000	2
20080514 17:15	23.8	23.8	23.8	27	3.7	5	13	22	0.00	1010.298	358	0.000	2
20080514 17:20	23.6	23.6	23.6	28	4.0	2	5	22	0.00	1010.230	475	0.000	2
20080514 17:25	23.8	23.8	23.8	26	3.2	0	3	22	0.00	1010.196	492	0.000	2
20080514 17:30	24.2	24.2	24.9	27	4.0	0	3	90	0.00	1010.061	492	0.000	2
20080514 17:35	24.2	24.2	24.9	27	4.0	3	10	67	0.00	1010.095	467	0.000	2
20080514 17:40	24.2	24.2	24.9	27	4.0	2	10	45	0.00	1009.959	455	0.000	1
20080514 17:45	24.1	24.1	25.0	30	5.4	2	5	45	0.00	1010.129	449	0.000	1
20080514 17:50	24.2	24.2	25.1	31	6.0	0	3	337	0.00	1009.926	441	0.000	1
20080514 17:55	24.4	24.4	25.1	28	4.7	0	5	315	0.00	1009.959	414	0.000	1
20080514 18:00	24.4	24.4	25.0	26	3.6	3	8	292	0.00	1009.926	390	0.240	1
20080514 18:05	24.4	24.4	25.1	29	5.2	2	6	292	0.00	1009.790	372	0.000	1
20080514 18:10	24.4	24.4	25.0	26	3.6	2	5	292	0.00	1009.722	369	0.000	1
20080514 18:15	24.2	24.2	24.9	27	4.0	2	6	292	0.00	1009.688	355	0.000	1
20080514 18:20	24.2	24.2	24.9	27	4.0	2	5	292	0.00	1009.722	344	0.000	1
20080514 18:25	24.2	24.2	25.0	28	4.5	0	5	292	0.00	1009.756	322	0.000	1
20080514 18:30	24.2	24.2	25.0	29	5.0	0	3	292	0.00	1009.688	298	0.000	1
20080514 18:35	24.1	24.1	25.1	31	5.9	0	3	292	0.00	1009.790	276	0.000	1
20080514 18:40	23.9	23.9	24.8	27	3.8	2	3	292	0.00	1009.756	262	0.000	1
20080514 18:45	23.9	23.9	24.8	26	3.3	0	2	292	0.00	1009.756	246	0.000	0
20080514 18:50	23.9	23.9	24.8	26	3.3	0	3	292	0.00	1009.722	231	0.000	0
20080514 18:55	23.8	23.8	23.8	31	5.7	0	2	292	0.00	1009.688	213	0.000	0
20080514 19:00	23.7	23.7	23.7	29	4.6	0	3	292	0.00	1009.655	194	0.160	0
20080514 19:05	23.3	23.3	23.3	30	4.8	0	2	292	0.00	1009.316	147	0.000	0
20080514 19:10	22.9	22.9	22.9	31	4.9	0	2	292	0.00	1009.316	58	0.000	0
20080514 19:15	22.7	22.7	22.7	37	7.2	0	2	292	0.00	1009.316	56	0.000	0
20080514 19:20	22.3	22.3	22.3	39	7.7	0	2	292	0.00	1009.519	54	0.000	0
20080514 19:25	22.1	22.1	22.1	33	5.0	0	2	292	0.00	1009.621	54	0.000	0
20080514 19:30	21.9	21.9	21.9	36	6.1	0	0	292	0.00	1009.655	53	0.000	0
20080514 19:35	21.8	21.8	21.8	35	5.6	0	0	292	0.00	1009.655	53	0.000	0
20080514 19:40	21.7	21.7	21.7	33	4.7	0	0	292	0.00	1009.621	51	0.000	0
20080514 19:45	21.6	21.6	21.6	35	5.4	0	0	292	0.00	1009.621	46	0.000	0
20080514 19:50	21.4	21.4	21.4	37	6.1	0	0	292	0.00	1009.655	40	0.000	0
20080514 19:55	21.3	21.3	21.3	36	5.6	0	2	292	0.00	1009.621	42	0.000	0
20080514 20:00	21.2	21.2	21.2	36	5.5	0	0	292	0.00	1009.688	40	0.040	0
20080514 20:05	21.1	21.1	21.1	36	5.4	0	0	292	0.00	1009.316	36	0.000	0
20080514 20:10	20.9	20.9	20.9	35	4.9	0	2	292	0.00	1009.316	33	0.000	0
20080514 20:15	20.8	20.8	20.8	36	5.2	0	2	292	0.00	1009.384	28	0.000	0
20080514 20:20	20.6	20.6	20.6	35	4.6	0	0	292	0.00	1009.418	22	0.000	0
20080514 20:25	20.4	20.4	20.4	36	4.9	0	0	292	0.00	1009.451	17	0.000	0
20080514 20:30	20.2	20.2	20.2	36	4.7	0	3	292	0.00	1009.418	13	0.000	0
20080514 20:35	20.0	20.0	20.0	38	5.2	0	2	292	0.00	1009.451	10	0.000	0
20080514 20:40	19.8	19.8	19.8	38	5.1	0	2	292	0.00	1009.418	6	0.000	0
20080514 20:45	19.6	19.6	19.6	37	4.5	0	2	292	0.00	1009.553	0	0.000	0
20080514 20:50	19.4	19.4	19.4	40	5.5	0	0	292	0.00	1009.553	0	0.000	0
20080514 20:55	19.2	19.2	19.2	39	4.9	0	2	292	0.00	1009.621	0	0.000	0
20080514 21:00	19.0	19.0	19.0	40	5.1	0	0	292	0.00	1009.688	0	0.020	0
20080514 21:05	18.8	18.8	18.8	39	4.5	0	0	292	0.00	1009.621	0	0.000	0
20080514 21:10	18.6	18.6	18.6	39	4.4	0	2	292	0.00	1009.688	0	0.000	0
20080514 21:15	18.5	18.5	18.5	40	4.6	0	0	292	0.00	1009.688	0	0.000	0
20080514 21:20	18.2	18.2	18.2	41	4.7	0	0	292	0.00	1009.790	0	0.000	0
20080514 21:25	17.9	17.9	17.9	43	5.2	0	0	292	0.00	1009.926	0	0.000	0
20080514 21:30	17.7	17.7	17.7	43	5.0	0	0	292	0.00	1009.959	0	0.000	0
20080514 21:35	17.4	17.4	17.4	45	5.4	0	0	292	0.00	1009.959	0	0.000	0
20080514 21:40	17.2	17.2	17.2	44	4.8	0	0	292	0.00	1010.027	0	0.000	0
20080514 21:45	16.9	16.9	16.9	46	5.2	0	2	292	0.00	1010.095	0	0.000	0
20080514 21:50	16.7	16.7	16.7	46	5.0	0	3	22	0.00	1010.264	0	0.000	0
20080514 21:55	16.4	16.4	16.4	47	5.1	0	5	45	0.00	1010.332	0	0.000	0
20080514 22:00	16.3	16.3	16.3	47	5.0	2	6	45	0.00	1010.298	0	0.040	0
20080514 22:05	16.3	16.3	16.3	48	5.3	3	10	135	0.00	1010.196	0	0.000	0
20080514 22:10	16.5	16.5	16.5	48	5.4	5	11	135	0.00	1010.061	0	0.000	0
20080514 22:15	16.7	16.7	16.7	48	5.6	6	11	135	0.00	1010.129	0	0.000	0
20080514 22:20	16.8	16.8	16.8	48	5.7	6	13	112	0.00	1010.129	0	0.000	0
20080514 22:25	16.7	16.7	16.7	48	5.6	8	13	112	0.00	1010.095	0	0.000	0
20080514 22:30	16.6	16.6	16.6	49	5.8	6	11	112	0.00	1010.163	0	0.000	0
20080514 22:35	16.4	16.4	16.4	49	5.6	6	10	112	0.00	1010.196	0	0.000	0
20080514 22:40	16.3	16.3	16.3	49	5.5	5	8	112	0.00	1010.332	0	0.000	0
20080514 22:45	16.2	16.2	16.2	49	5.5	5	8	135	0.00	1010.298	0	0.000	0
20080514 22:50	16.1	16.1	16.1	49	5.4	5	10	112	0.00	1010.264	0	0.000	0
20080514 22:55	16.2	16.2	16.2	49	5.4	5	10	112	0.00	1010.264	0	0.000	0
20080514 23:00	16.2	16.2	16.2	49	5.4	3	6	112	0.00	1010.298	0	0.060	0
20080514 23:05	16.2	16.2	16.2	49	5.4	2	5	135	0.00	1010.061	0	0.000	0
20080514 23:10	16.1	16.1	16.1	50	5.6	0	3	180	0.00	1009.993	0	0.000	0
20080514 23:15	15.9	15.9	15.9	50	5.5	0	3	180	0.00	1010.027	0	0.000	0
20080514 23:20	15.7	15.7	15.7	51	5.6	0	2	180	0.00	1010.129	0	0.000	0
20080514 23:25	15.6	15.6	15.6	51	5.5	0	3	180	0.00	1010.129	0	0.000	0
20080514 23:30	15.3	15.3	15.3	53	5.8	0	0	180	0.00	1010.129	0	0.000	0
20080514 23:35	15.0	15.0	15.0	54	5.8	0	3	180	0.00	1010.027	0	0.000	0
20080514 23:40	14.8	14.8	14.8	55	5.8	0	2	180	0.00	1010.027	0	0.000	0
20080514 23:45	14.6	14.6	14.6	56	5.9	0	2	180	0.00	1010.061	0	0.000	0
20080514 23:50	14.4	14.4	14.4	56	5.7	0	3	180	0.00	1010.095	0	0.000	0
20080514 23:55	14.2	14.2	14.2	57	5.8	0	0	180	0.00	1010.061	0	0.000	0
20080514 24:00	14.1	14.1	14.1	57	5.7	0	2	180	0.00	1010.061	0	0.040	0



Please note the license to use and transfer of this data:
http://creativecommons.org/licenses/by-nc-sa/3.0/deed.en

Bitte beachten sie die Lizenz zur Verwertung und Weitergabe der Daten:
http://creativecommons.org/licenses/by-nc-sa/3.0/deed.de

zurück zur Übersicht der Archivdaten (Monats und Tagesdaten)

Cookies helfen bei der Bereitstellung von Inhalten. Durch die Nutzung dieser Seiten erklärst du dich damit einverstanden, dass Cookies auf deinem Rechner gespeichert werden. Weitere Information